createdAt,value
2022-07-30T00:00:30.761Z,71.07
2022-07-30T00:02:56.561Z,71.23
2022-07-30T00:05:22.514Z,71.23
2022-07-30T00:07:48.414Z,71.15
2022-07-30T00:10:14.468Z,71.33
2022-07-30T00:12:40.395Z,71.95
2022-07-30T00:15:07.081Z,72.25
2022-07-30T00:17:32.982Z,72.17
2022-07-30T00:19:58.981Z,72.48
2022-07-30T00:22:25.216Z,72.59
2022-07-30T00:24:50.999Z,73.74
2022-07-30T00:27:16.872Z,75.33
2022-07-30T00:29:44.926Z,75.91
2022-07-30T00:32:11.344Z,76.83
2022-07-30T00:34:37.199Z,77.33
2022-07-30T00:37:03.449Z,77.58
2022-07-30T00:39:29.925Z,77.82
2022-07-30T00:41:58.728Z,77.89
2022-07-30T00:44:25.095Z,77.15
2022-07-30T00:46:51.394Z,77.12
2022-07-30T00:49:17.390Z,77.69
2022-07-30T00:51:43.447Z,77.12
2022-07-30T00:54:09.460Z,76.73
2022-07-30T00:56:35.346Z,76.70
2022-07-30T00:59:01.177Z,76.81
2022-07-30T01:01:27.115Z,76.75
2022-07-30T01:03:53.029Z,77.29
2022-07-30T01:06:18.934Z,77.69
2022-07-30T01:08:44.733Z,77.31
2022-07-30T01:11:11.247Z,76.98
2022-07-30T01:13:37.457Z,76.79
2022-07-30T01:16:03.977Z,77.02
2022-07-30T01:18:50.994Z,76.98
2022-07-30T01:21:23.296Z,76.40
2022-07-30T01:23:52.834Z,76.79
2022-07-30T01:26:21.509Z,76.50
2022-07-30T01:28:54.113Z,76.50
2022-07-30T01:31:21.140Z,76.51
2022-07-30T01:33:48.825Z,76.15
2022-07-30T01:36:16.627Z,77.42
2022-07-30T01:38:46.391Z,78.49
2022-07-30T01:41:14.371Z,78.25
2022-07-30T01:43:41.167Z,77.46
2022-07-30T01:46:09.772Z,77.22
2022-07-30T01:48:41.712Z,77.04
2022-07-30T01:51:09.305Z,76.89
2022-07-30T01:53:37.803Z,76.15
2022-07-30T01:56:04.945Z,76.32
2022-07-30T01:58:34.850Z,76.65
2022-07-30T02:01:00.920Z,75.74
2022-07-30T02:03:28.865Z,76.69
2022-07-30T02:06:07.205Z,77.00
2022-07-30T02:08:40.994Z,77.37
2022-07-30T02:11:35.930Z,77.08
2022-07-30T02:14:04.811Z,77.20
2022-07-30T02:16:35.185Z,77.58
2022-07-30T02:19:13.232Z,77.14
2022-07-30T02:21:50.577Z,77.77
2022-07-30T02:24:21.290Z,79.28
2022-07-30T02:26:51.358Z,80.33
2022-07-30T02:29:19.400Z,80.54
2022-07-30T02:31:45.906Z,80.91
2022-07-30T02:34:13.620Z,81.93
2022-07-30T02:36:42.524Z,82.56
2022-07-30T02:39:09.574Z,81.84
2022-07-30T02:41:39.389Z,81.54
2022-07-30T02:44:05.955Z,82.76
2022-07-30T02:46:32.144Z,83.57
2022-07-30T02:48:58.632Z,82.98
2022-07-30T02:51:27.123Z,82.73
2022-07-30T02:53:54.868Z,83.14
2022-07-30T02:56:22.026Z,84.14
2022-07-30T02:58:50.361Z,83.67
2022-07-30T03:01:18.606Z,83.05
2022-07-30T03:03:45.818Z,83.05
2022-07-30T03:06:14.595Z,82.45
2022-07-30T03:08:44.540Z,82.17
2022-07-30T03:11:12.389Z,81.54
2022-07-30T03:13:38.624Z,81.67
2022-07-30T03:16:08.655Z,82.11
2022-07-30T03:18:36.116Z,81.74
2022-07-30T03:21:03.160Z,81.53
2022-07-30T03:23:34.064Z,80.62
2022-07-30T03:26:02.324Z,80.31
2022-07-30T03:28:32.314Z,79.72
2022-07-30T03:30:59.000Z,78.80
2022-07-30T03:33:25.272Z,78.22
2022-07-30T03:36:05.158Z,77.92
2022-07-30T03:38:31.531Z,78.38
2022-07-30T03:40:58.370Z,78.39
2022-07-30T03:43:33.358Z,78.43
2022-07-30T03:46:04.432Z,78.78
2022-07-30T03:48:33.659Z,79.23
2022-07-30T03:51:02.368Z,79.74
2022-07-30T03:53:28.811Z,80.72
2022-07-30T03:55:55.463Z,80.82
2022-07-30T03:58:21.746Z,82.27
2022-07-30T04:00:49.524Z,82.46
2022-07-30T04:03:26.527Z,82.40
2022-07-30T04:05:52.949Z,82.66
2022-07-30T04:08:19.060Z,82.00
2022-07-30T04:10:48.443Z,82.13
2022-07-30T04:13:14.409Z,81.74
2022-07-30T04:16:38.793Z,81.66
2022-07-30T04:18:47.884Z,82.09
2022-07-30T04:21:17.545Z,82.66
2022-07-30T04:24:02.187Z,82.18
2022-07-30T04:26:33.117Z,81.88
2022-07-30T04:29:00.202Z,82.08
2022-07-30T04:31:27.580Z,81.44
2022-07-30T04:33:53.445Z,81.42
2022-07-30T04:36:19.229Z,81.82
2022-07-30T04:38:45.087Z,81.30
2022-07-30T04:41:11.479Z,81.22
2022-07-30T04:43:38.461Z,81.19
2022-07-30T04:46:04.421Z,80.48
2022-07-30T04:48:30.301Z,80.65
2022-07-30T04:51:00.991Z,80.63
2022-07-30T04:53:28.935Z,81.13
2022-07-30T04:55:56.574Z,80.96
2022-07-30T04:58:23.693Z,80.55
2022-07-30T05:00:51.519Z,80.58
2022-07-30T05:03:18.384Z,80.07
2022-07-30T05:05:45.786Z,80.28
2022-07-30T05:08:12.285Z,80.20
2022-07-30T05:10:38.235Z,81.52
2022-07-30T05:13:04.129Z,81.40
2022-07-30T05:15:36.234Z,81.28
2022-07-30T05:18:03.579Z,80.94
2022-07-30T05:20:29.381Z,80.89
2022-07-30T05:22:55.219Z,80.72
2022-07-30T05:25:21.000Z,80.16
2022-07-30T05:27:46.827Z,79.85
2022-07-30T05:30:12.949Z,79.85
2022-07-30T05:32:38.920Z,79.08
2022-07-30T05:35:05.055Z,79.55
2022-07-30T05:37:32.324Z,79.20
2022-07-30T05:40:03.443Z,78.88
2022-07-30T05:42:29.599Z,79.91
2022-07-30T05:44:56.240Z,80.34
2022-07-30T05:47:22.634Z,80.50
2022-07-30T05:49:48.663Z,80.76
2022-07-30T05:52:14.889Z,80.68
2022-07-30T05:54:41.025Z,80.15
2022-07-30T05:57:06.815Z,80.99
2022-07-30T05:59:32.668Z,80.99
2022-07-30T06:01:59.998Z,80.51
2022-07-30T06:04:25.890Z,80.35
2022-07-30T06:06:51.832Z,81.02
2022-07-30T06:09:17.625Z,80.61
2022-07-30T06:11:52.439Z,80.67
2022-07-30T06:14:23.378Z,81.25
2022-07-30T06:16:49.413Z,81.09
2022-07-30T06:19:19.659Z,80.58
2022-07-30T06:22:05.763Z,80.02
2022-07-30T06:24:31.524Z,79.84
2022-07-30T06:26:57.587Z,79.77
2022-07-30T06:29:23.525Z,79.76
2022-07-30T06:31:49.433Z,80.37
2022-07-30T06:34:15.244Z,80.68
2022-07-30T06:36:41.090Z,80.28
2022-07-30T06:39:07.204Z,80.79
2022-07-30T06:41:33.054Z,80.58
2022-07-30T06:43:58.856Z,79.87
2022-07-30T06:46:24.762Z,80.14
2022-07-30T06:48:51.052Z,79.82
2022-07-30T06:51:16.887Z,79.79
2022-07-30T06:53:45.076Z,79.53
2022-07-30T06:56:11.738Z,79.77
2022-07-30T06:58:38.500Z,78.44
2022-07-30T07:01:05.000Z,77.90
2022-07-30T07:03:40.218Z,78.14
2022-07-30T07:06:06.425Z,77.87
2022-07-30T07:08:35.563Z,78.10
2022-07-30T07:11:01.449Z,75.61
2022-07-30T07:13:27.285Z,76.03
2022-07-30T07:15:53.131Z,75.83
2022-07-30T07:18:19.010Z,74.83
2022-07-30T07:20:46.001Z,74.51
2022-07-30T07:23:12.631Z,74.19
2022-07-30T07:25:40.396Z,74.40
2022-07-30T07:28:11.809Z,73.80
2022-07-30T07:30:38.992Z,74.67
2022-07-30T07:33:04.919Z,75.76
2022-07-30T07:35:31.064Z,76.01
2022-07-30T07:37:56.850Z,77.02
2022-07-30T07:40:22.846Z,76.96
2022-07-30T07:42:50.524Z,76.38
2022-07-30T07:45:16.424Z,76.64
2022-07-30T07:47:49.178Z,77.63
2022-07-30T07:50:19.320Z,77.31
2022-07-30T07:52:45.142Z,77.01
2022-07-30T07:55:11.020Z,77.22
2022-07-30T07:57:41.595Z,77.28
2022-07-30T08:00:09.633Z,77.51
2022-07-30T08:02:35.973Z,77.35
2022-07-30T08:05:06.589Z,76.48
2022-07-30T08:07:32.998Z,76.78
2022-07-30T08:09:59.153Z,76.92
2022-07-30T08:12:25.719Z,76.38
2022-07-30T08:14:52.133Z,74.44
2022-07-30T08:17:19.053Z,73.68
2022-07-30T08:19:47.133Z,73.27
2022-07-30T08:22:13.097Z,72.91
2022-07-30T08:24:39.192Z,72.01
2022-07-30T08:27:05.358Z,70.67
2022-07-30T08:29:31.634Z,69.80
2022-07-30T08:31:57.555Z,69.94
2022-07-30T08:34:25.835Z,69.04
2022-07-30T08:36:51.840Z,66.97
2022-07-30T08:39:17.717Z,66.55
2022-07-30T08:41:44.368Z,66.95
2022-07-30T08:44:11.818Z,66.17
2022-07-30T08:46:41.809Z,65.49
2022-07-30T08:49:13.590Z,65.25
2022-07-30T08:51:39.709Z,64.60
2022-07-30T08:54:05.988Z,64.70
2022-07-30T08:56:33.432Z,64.43
2022-07-30T08:59:00.444Z,63.29
2022-07-30T09:01:26.999Z,62.37
2022-07-30T09:03:54.050Z,62.22
2022-07-30T09:06:20.023Z,63.17
2022-07-30T09:08:45.927Z,62.86
2022-07-30T09:11:12.001Z,61.14
2022-07-30T09:13:43.728Z,60.90
2022-07-30T09:16:24.482Z,61.98
2022-07-30T09:18:52.085Z,62.22
2022-07-30T09:21:26.072Z,62.55
2022-07-30T09:23:56.886Z,62.55
2022-07-30T09:26:22.843Z,62.18
2022-07-30T09:28:48.822Z,62.70
2022-07-30T09:31:17.182Z,62.25
2022-07-30T09:33:44.799Z,61.96
2022-07-30T09:36:16.255Z,63.22
2022-07-30T09:38:51.972Z,63.46
2022-07-30T09:41:38.704Z,63.04
2022-07-30T09:44:05.675Z,60.98
2022-07-30T09:46:46.568Z,61.05
2022-07-30T09:49:17.091Z,58.29
2022-07-30T09:51:56.359Z,59.13
2022-07-30T09:54:25.338Z,58.73
2022-07-30T09:57:23.246Z,58.86
2022-07-30T09:59:53.048Z,58.32
2022-07-30T10:02:18.979Z,57.56
2022-07-30T10:04:46.277Z,57.02
2022-07-30T10:07:25.381Z,57.21
2022-07-30T10:09:53.406Z,58.01
2022-07-30T10:12:20.656Z,57.53
2022-07-30T10:14:53.481Z,56.42
2022-07-30T10:17:21.441Z,55.04
2022-07-30T10:19:47.712Z,53.74
2022-07-30T10:22:17.009Z,52.37
2022-07-30T10:24:45.069Z,52.25
2022-07-30T10:27:11.350Z,51.64
2022-07-30T10:29:42.848Z,50.54
2022-07-30T10:32:09.450Z,49.00
2022-07-30T10:34:37.437Z,48.24
2022-07-30T10:37:10.838Z,48.36
2022-07-30T10:39:54.311Z,49.39
2022-07-30T10:42:29.196Z,50.20
2022-07-30T10:45:27.370Z,50.52
2022-07-30T10:47:55.403Z,51.50
2022-07-30T10:50:26.437Z,49.35
2022-07-30T10:52:53.767Z,48.14
2022-07-30T10:55:37.298Z,47.67
2022-07-30T10:58:10.320Z,49.09
2022-07-30T11:00:56.670Z,48.01
2022-07-30T11:03:40.966Z,46.63
2022-07-30T11:06:16.463Z,44.92
2022-07-30T11:08:50.770Z,45.98
2022-07-30T11:11:20.416Z,44.94
2022-07-30T11:13:56.517Z,43.94
2022-07-30T11:16:32.276Z,43.31
2022-07-30T11:19:19.433Z,42.74
2022-07-30T11:21:49.543Z,42.92
2022-07-30T11:24:46.465Z,42.15
2022-07-30T11:27:41.668Z,40.66
2022-07-30T11:30:28.456Z,40.98
2022-07-30T11:33:03.395Z,42.19
2022-07-30T11:35:34.525Z,40.95
2022-07-30T11:38:08.736Z,40.60
2022-07-30T11:41:00.828Z,41.46
2022-07-30T11:43:34.944Z,43.77
2022-07-30T11:46:10.876Z,47.89
2022-07-30T11:48:53.613Z,46.50
2022-07-30T11:51:20.434Z,45.02
2022-07-30T11:54:10.031Z,44.16
2022-07-30T11:56:36.439Z,44.21
2022-07-30T11:59:05.081Z,44.42
2022-07-30T12:01:32.687Z,43.93
2022-07-30T12:04:02.379Z,42.65
2022-07-30T12:06:31.193Z,40.96
2022-07-30T12:08:58.869Z,41.81
2022-07-30T12:11:31.802Z,40.62
2022-07-30T12:13:59.337Z,40.25
2022-07-30T12:16:26.388Z,40.24
2022-07-30T12:18:52.563Z,39.40
2022-07-30T12:21:20.417Z,40.21
2022-07-30T12:23:57.571Z,40.02
2022-07-30T12:26:29.044Z,40.44
2022-07-30T12:29:00.942Z,39.95
2022-07-30T12:31:27.417Z,38.93
2022-07-30T12:33:55.601Z,38.90
2022-07-30T12:36:33.147Z,39.16
2022-07-30T12:38:59.626Z,39.77
2022-07-30T12:41:42.496Z,41.18
2022-07-30T12:44:09.276Z,40.33
2022-07-30T12:46:41.126Z,40.07
2022-07-30T12:49:16.070Z,41.20
2022-07-30T12:52:00.037Z,41.79
2022-07-30T12:54:26.788Z,42.90
2022-07-30T12:56:57.410Z,43.45
2022-07-30T12:59:23.881Z,42.42
2022-07-30T13:01:51.614Z,41.29
2022-07-30T13:04:17.470Z,41.10
2022-07-30T13:06:43.438Z,40.11
2022-07-30T13:09:20.293Z,39.44
2022-07-30T13:11:48.706Z,40.78
2022-07-30T13:14:16.487Z,40.56
2022-07-30T13:16:42.634Z,39.38
2022-07-30T13:19:11.002Z,38.68
2022-07-30T13:21:38.198Z,38.33
2022-07-30T13:24:04.442Z,37.04
2022-07-30T13:26:30.938Z,36.24
2022-07-30T13:29:01.542Z,35.75
2022-07-30T13:31:27.856Z,35.62
2022-07-30T13:34:08.677Z,36.17
2022-07-30T13:36:34.522Z,36.45
2022-07-30T13:39:00.368Z,36.96
2022-07-30T13:41:26.267Z,36.38
2022-07-30T13:43:52.152Z,34.57
2022-07-30T13:46:17.995Z,33.76
2022-07-30T13:48:44.128Z,33.83
2022-07-30T13:51:10.072Z,32.99
2022-07-30T13:53:35.976Z,33.45
2022-07-30T13:56:02.776Z,33.44
2022-07-30T13:58:31.814Z,32.23
2022-07-30T14:01:01.537Z,33.44
2022-07-30T14:03:27.452Z,33.78
2022-07-30T14:05:53.697Z,32.64
2022-07-30T14:08:19.689Z,34.01
2022-07-30T14:10:45.470Z,31.25
2022-07-30T14:13:19.418Z,32.46
2022-07-30T14:15:47.807Z,30.89
2022-07-30T14:18:13.639Z,32.12
2022-07-30T14:20:39.727Z,32.17
2022-07-30T14:23:05.577Z,32.26
2022-07-30T14:25:31.500Z,31.35
2022-07-30T14:27:57.353Z,31.62
2022-07-30T14:30:23.970Z,32.65
2022-07-30T14:32:52.616Z,30.97
2022-07-30T14:35:23.293Z,30.85
2022-07-30T14:37:49.112Z,31.10
2022-07-30T14:40:15.040Z,31.23
2022-07-30T14:42:41.865Z,30.50
2022-07-30T14:45:09.200Z,30.92
2022-07-30T14:47:35.564Z,31.28
2022-07-30T14:50:02.652Z,30.79
2022-07-30T14:52:28.576Z,30.43
2022-07-30T14:54:54.420Z,29.68
2022-07-30T14:57:20.329Z,30.21
2022-07-30T14:59:46.252Z,30.94
2022-07-30T15:02:12.295Z,31.42
2022-07-30T15:04:38.213Z,31.72
2022-07-30T15:07:04.036Z,30.66
2022-07-30T15:09:33.415Z,30.81
2022-07-30T15:12:08.504Z,30.26
2022-07-30T15:14:39.969Z,30.83
2022-07-30T15:17:06.543Z,30.32
2022-07-30T15:19:32.498Z,30.09
2022-07-30T15:22:01.185Z,31.77
2022-07-30T15:24:27.765Z,32.49
2022-07-30T15:26:55.613Z,32.23
2022-07-30T15:29:23.367Z,32.07
2022-07-30T15:31:50.268Z,31.71
2022-07-30T15:34:18.733Z,33.32
2022-07-30T15:36:44.873Z,33.75
2022-07-30T15:39:10.718Z,33.86
2022-07-30T15:41:37.118Z,33.65
2022-07-30T15:44:03.366Z,32.95
2022-07-30T15:46:29.402Z,32.72
2022-07-30T15:48:55.705Z,33.30
2022-07-30T15:51:21.656Z,33.01
2022-07-30T15:53:47.980Z,32.97
2022-07-30T15:56:15.120Z,32.92
2022-07-30T15:58:43.572Z,33.27
2022-07-30T16:01:09.690Z,32.92
2022-07-30T16:03:35.561Z,32.76
2022-07-30T16:06:01.418Z,33.21
2022-07-30T16:08:27.281Z,33.11
2022-07-30T16:10:53.069Z,32.78
2022-07-30T16:13:18.949Z,32.64
2022-07-30T16:15:44.865Z,33.43
2022-07-30T16:18:10.681Z,33.56
2022-07-30T16:20:36.599Z,33.74
2022-07-30T16:23:02.515Z,32.69
2022-07-30T16:25:28.343Z,33.23
2022-07-30T16:27:54.211Z,32.05
2022-07-30T16:30:20.244Z,33.03
2022-07-30T16:32:46.163Z,32.74
2022-07-30T16:35:13.466Z,33.31
2022-07-30T16:37:39.941Z,32.67
2022-07-30T16:40:06.161Z,32.64
2022-07-30T16:42:32.035Z,32.86
2022-07-30T16:44:57.884Z,33.03
2022-07-30T16:47:23.704Z,32.64
2022-07-30T16:49:49.506Z,33.94
2022-07-30T16:52:17.294Z,35.10
2022-07-30T16:54:43.262Z,35.75
2022-07-30T16:57:10.763Z,36.51
2022-07-30T16:59:37.199Z,35.70
2022-07-30T17:02:03.992Z,35.65
2022-07-30T17:04:30.029Z,37.09
2022-07-30T17:06:55.886Z,36.73
2022-07-30T17:09:24.522Z,37.39
2022-07-30T17:11:52.263Z,37.92
2022-07-30T17:14:21.452Z,38.03
2022-07-30T17:16:47.261Z,38.05
2022-07-30T17:19:13.176Z,38.40
2022-07-30T17:21:39.066Z,38.57
2022-07-30T17:24:10.290Z,39.04
2022-07-30T17:26:38.901Z,39.10
2022-07-30T17:29:05.007Z,38.14
2022-07-30T17:31:30.861Z,38.21
2022-07-30T17:33:56.702Z,38.48
2022-07-30T17:36:22.869Z,38.84
2022-07-30T17:38:48.722Z,37.92
2022-07-30T17:41:14.525Z,37.63
2022-07-30T17:43:40.514Z,37.16
2022-07-30T17:46:06.427Z,37.15
2022-07-30T17:48:32.340Z,37.56
2022-07-30T17:50:58.265Z,38.16
2022-07-30T17:53:27.892Z,38.72
2022-07-30T17:55:57.945Z,39.47
2022-07-30T17:58:24.429Z,39.34
2022-07-30T18:00:50.419Z,40.13
2022-07-30T18:03:16.438Z,40.77
2022-07-30T18:05:42.296Z,41.03
2022-07-30T18:08:08.112Z,41.26
2022-07-30T18:10:33.979Z,41.22
2022-07-30T18:12:59.777Z,41.88
2022-07-30T18:15:45.622Z,42.00
2022-07-30T18:18:11.490Z,41.55
2022-07-30T18:20:37.417Z,41.92
2022-07-30T18:23:18.203Z,41.85
2022-07-30T18:25:52.952Z,41.93
2022-07-30T18:28:19.303Z,41.81
2022-07-30T18:30:45.418Z,42.46
2022-07-30T18:33:11.278Z,42.34
2022-07-30T18:35:37.353Z,42.98
2022-07-30T18:38:03.237Z,43.75
2022-07-30T18:40:29.151Z,44.11
2022-07-30T18:42:54.972Z,44.72
2022-07-30T18:45:21.999Z,44.35
2022-07-30T18:47:48.392Z,44.06
2022-07-30T18:50:15.304Z,44.95
2022-07-30T18:52:41.457Z,45.39
2022-07-30T18:55:10.505Z,44.95
2022-07-30T18:57:36.600Z,45.11
2022-07-30T19:00:05.880Z,44.96
2022-07-30T19:02:31.730Z,45.11
2022-07-30T19:04:58.216Z,44.85
2022-07-30T19:07:24.239Z,45.24
2022-07-30T19:09:54.466Z,45.64
2022-07-30T19:12:21.353Z,45.62
2022-07-30T19:14:47.620Z,46.13
2022-07-30T19:17:15.473Z,46.60
2022-07-30T19:19:41.612Z,46.79
2022-07-30T19:22:07.573Z,46.45
2022-07-30T19:24:33.388Z,46.60
2022-07-30T19:26:59.256Z,46.71
2022-07-30T19:29:25.155Z,46.64
2022-07-30T19:31:50.998Z,46.70
2022-07-30T19:34:16.841Z,47.13
2022-07-30T19:36:42.694Z,47.16
2022-07-30T19:39:12.125Z,47.41
2022-07-30T19:41:42.026Z,47.75
2022-07-30T19:44:09.143Z,47.25
2022-07-30T19:46:35.487Z,47.59
2022-07-30T19:49:01.967Z,47.67
2022-07-30T19:52:09.798Z,47.05
2022-07-30T19:54:15.389Z,47.14
2022-07-30T19:56:41.296Z,47.13
2022-07-30T19:59:14.875Z,47.15
2022-07-30T20:01:42.329Z,47.30
2022-07-30T20:04:08.200Z,47.61
2022-07-30T20:06:34.374Z,47.68
2022-07-30T20:09:00.310Z,47.70
2022-07-30T20:11:36.156Z,47.69
2022-07-30T20:14:03.180Z,47.84
2022-07-30T20:16:29.029Z,47.76
2022-07-30T20:18:54.911Z,47.71
2022-07-30T20:21:20.835Z,47.64
2022-07-30T20:24:06.895Z,47.64
2022-07-30T20:26:33.081Z,48.24
2022-07-30T20:28:59.540Z,47.95
2022-07-30T20:31:26.549Z,48.38
2022-07-30T20:33:53.863Z,48.07
2022-07-30T20:36:21.547Z,48.34
2022-07-30T20:38:48.513Z,48.07
2022-07-30T20:41:15.036Z,48.10
2022-07-30T20:43:51.544Z,48.35
2022-07-30T20:46:17.689Z,48.36
2022-07-30T20:48:45.066Z,48.25
2022-07-30T20:51:11.012Z,48.55
2022-07-30T20:53:37.097Z,48.90
2022-07-30T20:56:03.206Z,49.70
2022-07-30T20:58:29.092Z,49.84
2022-07-30T21:00:55.420Z,49.76
2022-07-30T21:03:21.805Z,49.70
2022-07-30T21:05:52.632Z,50.25
2022-07-30T21:08:19.030Z,50.39
2022-07-30T21:10:46.139Z,49.86
2022-07-30T21:13:12.191Z,49.99
2022-07-30T21:18:23.899Z,50.03
2022-07-30T21:20:49.749Z,49.97
2022-07-30T21:23:21.445Z,50.15
2022-07-30T21:28:35.172Z,50.48
2022-07-30T21:31:02.574Z,50.68
2022-07-30T21:33:31.142Z,51.21
2022-07-30T21:35:57.308Z,51.12
2022-07-30T21:38:25.665Z,51.62
2022-07-30T21:40:51.510Z,51.71
2022-07-30T21:43:17.367Z,52.72
2022-07-30T21:45:55.709Z,53.97
2022-07-30T21:48:21.587Z,54.01
2022-07-30T21:50:47.502Z,53.52
2022-07-30T21:53:14.279Z,52.80
2022-07-30T21:55:52.366Z,52.62
2022-07-30T21:58:25.812Z,53.15
2022-07-30T22:00:54.294Z,52.99
2022-07-30T22:04:00.603Z,52.02
2022-07-30T22:06:12.426Z,51.98
2022-07-30T22:08:38.832Z,51.81
2022-07-30T22:11:08.877Z,51.91
2022-07-30T22:13:35.405Z,51.38
2022-07-30T22:16:17.507Z,51.25
2022-07-30T22:18:44.885Z,51.18
2022-07-30T22:21:10.660Z,51.52
2022-07-30T22:23:40.397Z,51.58
2022-07-30T22:26:23.569Z,51.73
2022-07-30T22:28:52.696Z,51.85
2022-07-30T22:31:20.538Z,52.35
2022-07-30T22:33:46.417Z,52.28
2022-07-30T22:36:15.714Z,52.34
2022-07-30T22:38:41.739Z,52.76
2022-07-30T22:41:10.955Z,52.99
2022-07-30T22:43:41.107Z,52.69
2022-07-30T22:46:19.012Z,54.29
2022-07-30T22:48:53.487Z,54.06
2022-07-30T22:51:19.429Z,53.70
2022-07-30T22:54:10.377Z,53.37
2022-07-30T22:56:32.393Z,53.75
2022-07-30T22:58:58.273Z,54.49
2022-07-30T23:01:24.408Z,54.21
2022-07-30T23:03:50.321Z,54.29
2022-07-30T23:06:16.306Z,53.75
2022-07-30T23:08:42.339Z,54.17
2022-07-30T23:11:08.454Z,54.65
2022-07-30T23:12:26.972Z,49.94
2022-07-30T23:12:33.096Z,50.31
2022-07-30T23:13:37.809Z,54.13
2022-07-30T23:16:04.947Z,54.21
2022-07-30T23:18:30.842Z,54.33
2022-07-30T23:21:00.257Z,54.18
2022-07-30T23:23:27.969Z,53.57
2022-07-30T23:25:56.857Z,53.67
2022-07-30T23:28:23.683Z,53.62
2022-07-30T23:30:49.668Z,53.76
2022-07-30T23:33:18.498Z,54.27
2022-07-30T23:35:44.591Z,54.18
2022-07-30T23:38:10.431Z,54.47
2022-07-30T23:40:36.204Z,54.36
2022-07-30T23:43:02.048Z,54.47
2022-07-30T23:45:27.956Z,54.82
2022-07-30T23:48:02.399Z,55.26
2022-07-30T23:50:33.350Z,56.40
2022-07-30T23:53:00.804Z,56.01
2022-07-30T23:55:27.402Z,55.00
2022-07-30T23:57:53.590Z,55.28
